sensor_id;sensor_type;location;lat;lon;timestamp;temperature;humidity
33476;DHT22;19814;48.224;11.422;2023-09-30T00:00:01;17.10;98.50
33476;DHT22;19814;48.224;11.422;2023-09-30T00:02:27;17.10;98.60
33476;DHT22;19814;48.224;11.422;2023-09-30T00:04:53;17.10;98.60
33476;DHT22;19814;48.224;11.422;2023-09-30T00:07:19;17.00;98.50
33476;DHT22;19814;48.224;11.422;2023-09-30T00:09:45;17.00;98.60
33476;DHT22;19814;48.224;11.422;2023-09-30T00:12:10;16.90;98.70
33476;DHT22;19814;48.224;11.422;2023-09-30T00:14:36;16.90;98.70
33476;DHT22;19814;48.224;11.422;2023-09-30T00:17:03;16.90;98.90
33476;DHT22;19814;48.224;11.422;2023-09-30T00:19:28;16.90;99.10
33476;DHT22;19814;48.224;11.422;2023-09-30T00:21:54;16.90;99.30
33476;DHT22;19814;48.224;11.422;2023-09-30T00:24:19;16.90;99.20
33476;DHT22;19814;48.224;11.422;2023-09-30T00:26:45;16.80;99.40
33476;DHT22;19814;48.224;11.422;2023-09-30T00:29:11;16.90;99.40
33476;DHT22;19814;48.224;11.422;2023-09-30T00:31:37;16.90;99.40
33476;DHT22;19814;48.224;11.422;2023-09-30T00:34:02;16.90;99.60
33476;DHT22;19814;48.224;11.422;2023-09-30T00:36:28;16.90;99.30
33476;DHT22;19814;48.224;11.422;2023-09-30T00:38:53;16.70;99.50
33476;DHT22;19814;48.224;11.422;2023-09-30T00:41:19;16.60;99.80
33476;DHT22;19814;48.224;11.422;2023-09-30T00:43:47;16.70;99.80
33476;DHT22;19814;48.224;11.422;2023-09-30T00:46:29;16.70;99.90
33476;DHT22;19814;48.224;11.422;2023-09-30T00:48:55;16.60;99.90
33476;DHT22;19814;48.224;11.422;2023-09-30T00:51:22;16.70;99.90
33476;DHT22;19814;48.224;11.422;2023-09-30T00:53:49;16.70;99.90
33476;DHT22;19814;48.224;11.422;2023-09-30T00:56:17;16.70;99.90
33476;DHT22;19814;48.224;11.422;2023-09-30T00:58:43;16.70;99.90
33476;DHT22;19814;48.224;11.422;2023-09-30T01:01:10;16.70;99.90
33476;DHT22;19814;48.224;11.422;2023-09-30T01:03:37;16.70;99.90
33476;DHT22;19814;48.224;11.422;2023-09-30T01:06:02;16.70;99.90
33476;DHT22;19814;48.224;11.422;2023-09-30T01:08:28;16.60;99.90
33476;DHT22;19814;48.224;11.422;2023-09-30T01:10:54;16.60;99.90
33476;DHT22;19814;48.224;11.422;2023-09-30T01:13:20;16.60;99.90
33476;DHT22;19814;48.224;11.422;2023-09-30T01:15:46;16.70;99.90
33476;DHT22;19814;48.224;11.422;2023-09-30T01:18:12;16.70;99.90
33476;DHT22;19814;48.224;11.422;2023-09-30T01:20:38;16.70;99.90
33476;DHT22;19814;48.224;11.422;2023-09-30T01:23:04;16.70;99.90
33476;DHT22;19814;48.224;11.422;2023-09-30T01:25:30;16.70;99.90
33476;DHT22;19814;48.224;11.422;2023-09-30T01:27:55;16.70;99.90
33476;DHT22;19814;48.224;11.422;2023-09-30T01:30:23;16.80;99.90
33476;DHT22;19814;48.224;11.422;2023-09-30T01:32:49;16.80;99.90
33476;DHT22;19814;48.224;11.422;2023-09-30T01:35:14;16.70;99.90
33476;DHT22;19814;48.224;11.422;2023-09-30T01:37:40;16.60;99.90
33476;DHT22;19814;48.224;11.422;2023-09-30T01:40:06;16.60;99.90
33476;DHT22;19814;48.224;11.422;2023-09-30T01:42:37;16.50;99.90
33476;DHT22;19814;48.224;11.422;2023-09-30T01:45:03;16.40;99.90
33476;DHT22;19814;48.224;11.422;2023-09-30T01:47:29;16.30;99.90
33476;DHT22;19814;48.224;11.422;2023-09-30T01:49:54;16.20;99.90
33476;DHT22;19814;48.224;11.422;2023-09-30T01:52:20;16.20;99.90
33476;DHT22;19814;48.224;11.422;2023-09-30T01:54:45;16.20;99.90
33476;DHT22;19814;48.224;11.422;2023-09-30T01:57:11;16.20;99.90
33476;DHT22;19814;48.224;11.422;2023-09-30T01:59:36;16.10;99.90
33476;DHT22;19814;48.224;11.422;2023-09-30T02:02:02;16.10;99.90
33476;DHT22;19814;48.224;11.422;2023-09-30T02:04:28;16.10;99.90
33476;DHT22;19814;48.224;11.422;2023-09-30T02:06:54;16.00;99.90
33476;DHT22;19814;48.224;11.422;2023-09-30T02:09:20;16.00;99.90
33476;DHT22;19814;48.224;11.422;2023-09-30T02:11:45;16.00;99.90
33476;DHT22;19814;48.224;11.422;2023-09-30T02:14:11;16.00;99.90
33476;DHT22;19814;48.224;11.422;2023-09-30T02:16:38;16.00;99.90
33476;DHT22;19814;48.224;11.422;2023-09-30T02:19:04;16.00;99.90
33476;DHT22;19814;48.224;11.422;2023-09-30T02:21:29;16.00;99.90
33476;DHT22;19814;48.224;11.422;2023-09-30T02:23:55;16.00;99.90
33476;DHT22;19814;48.224;11.422;2023-09-30T02:26:21;16.10;99.90
33476;DHT22;19814;48.224;11.422;2023-09-30T02:28:47;16.10;99.90
33476;DHT22;19814;48.224;11.422;2023-09-30T02:31:13;16.00;99.90
33476;DHT22;19814;48.224;11.422;2023-09-30T02:33:38;16.00;99.90
33476;DHT22;19814;48.224;11.422;2023-09-30T02:36:07;15.90;99.90
33476;DHT22;19814;48.224;11.422;2023-09-30T02:38:34;15.90;99.90
33476;DHT22;19814;48.224;11.422;2023-09-30T02:41:01;15.90;99.90
33476;DHT22;19814;48.224;11.422;2023-09-30T02:43:28;15.90;99.90
33476;DHT22;19814;48.224;11.422;2023-09-30T02:45:53;15.90;99.90
33476;DHT22;19814;48.224;11.422;2023-09-30T02:48:19;15.80;99.90
33476;DHT22;19814;48.224;11.422;2023-09-30T02:50:44;15.80;99.90
33476;DHT22;19814;48.224;11.422;2023-09-30T02:53:10;15.70;99.90
33476;DHT22;19814;48.224;11.422;2023-09-30T02:55:37;15.70;99.90
33476;DHT22;19814;48.224;11.422;2023-09-30T02:58:03;15.70;99.90
33476;DHT22;19814;48.224;11.422;2023-09-30T03:00:28;15.70;99.90
33476;DHT22;19814;48.224;11.422;2023-09-30T03:02:58;15.60;99.90
33476;DHT22;19814;48.224;11.422;2023-09-30T03:05:24;15.60;99.90
33476;DHT22;19814;48.224;11.422;2023-09-30T03:07:50;15.60;99.90
33476;DHT22;19814;48.224;11.422;2023-09-30T03:10:19;15.60;99.90
33476;DHT22;19814;48.224;11.422;2023-09-30T03:12:52;15.50;99.90
33476;DHT22;19814;48.224;11.422;2023-09-30T03:15:18;15.50;99.90
33476;DHT22;19814;48.224;11.422;2023-09-30T03:17:44;15.50;99.90
33476;DHT22;19814;48.224;11.422;2023-09-30T03:20:10;15.50;99.90
33476;DHT22;19814;48.224;11.422;2023-09-30T03:22:41;15.40;99.90
33476;DHT22;19814;48.224;11.422;2023-09-30T03:25:11;15.40;99.90
33476;DHT22;19814;48.224;11.422;2023-09-30T03:27:37;15.50;99.90
33476;DHT22;19814;48.224;11.422;2023-09-30T03:30:07;15.50;99.90
33476;DHT22;19814;48.224;11.422;2023-09-30T03:32:34;15.50;99.90
33476;DHT22;19814;48.224;11.422;2023-09-30T03:35:02;15.60;99.90
33476;DHT22;19814;48.224;11.422;2023-09-30T03:37:27;15.60;99.90
33476;DHT22;19814;48.224;11.422;2023-09-30T03:39:56;15.70;99.90
33476;DHT22;19814;48.224;11.422;2023-09-30T03:42:22;15.70;99.90
33476;DHT22;19814;48.224;11.422;2023-09-30T03:44:47;15.80;99.90
33476;DHT22;19814;48.224;11.422;2023-09-30T03:47:17;15.90;99.90
33476;DHT22;19814;48.224;11.422;2023-09-30T03:49:42;15.90;99.90
33476;DHT22;19814;48.224;11.422;2023-09-30T03:52:09;15.90;99.90
33476;DHT22;19814;48.224;11.422;2023-09-30T03:54:35;15.90;99.90
33476;DHT22;19814;48.224;11.422;2023-09-30T03:57:00;16.00;99.90
33476;DHT22;19814;48.224;11.422;2023-09-30T03:59:26;16.00;99.90
33476;DHT22;19814;48.224;11.422;2023-09-30T04:01:53;16.00;99.90
33476;DHT22;19814;48.224;11.422;2023-09-30T04:04:19;16.00;99.90
33476;DHT22;19814;48.224;11.422;2023-09-30T04:06:46;16.00;99.90
33476;DHT22;19814;48.224;11.422;2023-09-30T04:09:12;16.00;99.90
33476;DHT22;19814;48.224;11.422;2023-09-30T04:11:38;16.00;99.90
33476;DHT22;19814;48.224;11.422;2023-09-30T04:14:05;16.10;99.90
33476;DHT22;19814;48.224;11.422;2023-09-30T04:16:32;16.00;99.90
33476;DHT22;19814;48.224;11.422;2023-09-30T04:18:58;16.00;99.90
33476;DHT22;19814;48.224;11.422;2023-09-30T04:21:23;16.00;99.90
33476;DHT22;19814;48.224;11.422;2023-09-30T04:23:49;16.00;99.90
33476;DHT22;19814;48.224;11.422;2023-09-30T04:26:15;16.00;99.90
33476;DHT22;19814;48.224;11.422;2023-09-30T04:28:40;16.00;99.90
33476;DHT22;19814;48.224;11.422;2023-09-30T04:31:06;16.10;99.90
33476;DHT22;19814;48.224;11.422;2023-09-30T04:33:33;16.10;99.90
33476;DHT22;19814;48.224;11.422;2023-09-30T04:36:01;16.10;99.90
33476;DHT22;19814;48.224;11.422;2023-09-30T04:38:27;16.00;99.90
33476;DHT22;19814;48.224;11.422;2023-09-30T04:40:52;16.00;99.90
33476;DHT22;19814;48.224;11.422;2023-09-30T04:43:19;16.10;99.90
33476;DHT22;19814;48.224;11.422;2023-09-30T04:45:46;16.00;99.90
33476;DHT22;19814;48.224;11.422;2023-09-30T04:48:12;16.00;99.90
33476;DHT22;19814;48.224;11.422;2023-09-30T04:50:39;16.00;99.90
33476;DHT22;19814;48.224;11.422;2023-09-30T04:53:05;15.90;99.90
33476;DHT22;19814;48.224;11.422;2023-09-30T04:55:31;15.90;99.90
33476;DHT22;19814;48.224;11.422;2023-09-30T04:57:56;15.80;99.90
33476;DHT22;19814;48.224;11.422;2023-09-30T05:00:22;15.80;99.90
33476;DHT22;19814;48.224;11.422;2023-09-30T05:02:51;15.70;99.90
33476;DHT22;19814;48.224;11.422;2023-09-30T05:05:18;15.60;99.90
33476;DHT22;19814;48.224;11.422;2023-09-30T05:07:43;15.50;99.90
33476;DHT22;19814;48.224;11.422;2023-09-30T05:10:10;15.50;99.90
33476;DHT22;19814;48.224;11.422;2023-09-30T05:12:44;15.40;99.90
33476;DHT22;19814;48.224;11.422;2023-09-30T05:15:14;15.30;99.90
33476;DHT22;19814;48.224;11.422;2023-09-30T05:17:41;15.30;99.90
33476;DHT22;19814;48.224;11.422;2023-09-30T05:20:09;15.30;99.90
33476;DHT22;19814;48.224;11.422;2023-09-30T05:22:36;15.30;99.90
33476;DHT22;19814;48.224;11.422;2023-09-30T05:25:02;15.30;99.90
33476;DHT22;19814;48.224;11.422;2023-09-30T05:27:28;15.40;99.90
33476;DHT22;19814;48.224;11.422;2023-09-30T05:29:53;15.30;99.90
33476;DHT22;19814;48.224;11.422;2023-09-30T05:32:21;15.30;99.90
33476;DHT22;19814;48.224;11.422;2023-09-30T05:34:47;15.30;99.90
33476;DHT22;19814;48.224;11.422;2023-09-30T05:37:13;15.30;99.90
33476;DHT22;19814;48.224;11.422;2023-09-30T05:39:39;15.30;99.90
33476;DHT22;19814;48.224;11.422;2023-09-30T05:42:05;15.30;99.90
33476;DHT22;19814;48.224;11.422;2023-09-30T05:44:32;15.20;99.90
33476;DHT22;19814;48.224;11.422;2023-09-30T05:46:58;15.20;99.90
33476;DHT22;19814;48.224;11.422;2023-09-30T05:49:25;15.20;99.90
33476;DHT22;19814;48.224;11.422;2023-09-30T05:51:51;15.20;99.90
33476;DHT22;19814;48.224;11.422;2023-09-30T05:54:17;15.20;99.90
33476;DHT22;19814;48.224;11.422;2023-09-30T05:56:42;15.20;99.90
33476;DHT22;19814;48.224;11.422;2023-09-30T05:59:08;15.20;99.90
33476;DHT22;19814;48.224;11.422;2023-09-30T06:01:34;15.30;99.90
33476;DHT22;19814;48.224;11.422;2023-09-30T06:04:01;15.30;99.90
33476;DHT22;19814;48.224;11.422;2023-09-30T06:06:27;15.50;99.90
33476;DHT22;19814;48.224;11.422;2023-09-30T06:08:57;15.50;99.90
33476;DHT22;19814;48.224;11.422;2023-09-30T06:11:25;15.60;99.90
33476;DHT22;19814;48.224;11.422;2023-09-30T06:13:54;15.60;99.90
33476;DHT22;19814;48.224;11.422;2023-09-30T06:16:20;15.60;99.90
33476;DHT22;19814;48.224;11.422;2023-09-30T06:18:46;15.60;99.90
33476;DHT22;19814;48.224;11.422;2023-09-30T06:21:13;15.60;99.90
33476;DHT22;19814;48.224;11.422;2023-09-30T06:23:40;15.70;99.90
33476;DHT22;19814;48.224;11.422;2023-09-30T06:26:06;15.70;99.90
33476;DHT22;19814;48.224;11.422;2023-09-30T06:28:31;15.80;99.90
33476;DHT22;19814;48.224;11.422;2023-09-30T06:30:59;15.90;99.90
33476;DHT22;19814;48.224;11.422;2023-09-30T06:33:25;15.90;99.90
33476;DHT22;19814;48.224;11.422;2023-09-30T06:35:51;15.90;99.90
33476;DHT22;19814;48.224;11.422;2023-09-30T06:38:20;16.00;99.90
33476;DHT22;19814;48.224;11.422;2023-09-30T06:40:46;16.00;99.90
33476;DHT22;19814;48.224;11.422;2023-09-30T06:43:13;16.10;99.90
33476;DHT22;19814;48.224;11.422;2023-09-30T06:45:41;16.20;99.90
33476;DHT22;19814;48.224;11.422;2023-09-30T06:48:08;16.30;99.90
33476;DHT22;19814;48.224;11.422;2023-09-30T06:50:47;16.40;99.90
33476;DHT22;19814;48.224;11.422;2023-09-30T06:53:14;16.40;99.90
33476;DHT22;19814;48.224;11.422;2023-09-30T06:55:41;16.50;99.90
33476;DHT22;19814;48.224;11.422;2023-09-30T06:58:08;16.60;99.90
33476;DHT22;19814;48.224;11.422;2023-09-30T07:00:36;16.70;99.90
33476;DHT22;19814;48.224;11.422;2023-09-30T07:03:02;16.90;99.90
33476;DHT22;19814;48.224;11.422;2023-09-30T07:05:27;17.00;99.90
33476;DHT22;19814;48.224;11.422;2023-09-30T07:07:56;17.00;99.90
33476;DHT22;19814;48.224;11.422;2023-09-30T07:10:22;17.00;99.90
33476;DHT22;19814;48.224;11.422;2023-09-30T07:12:48;17.20;99.90
33476;DHT22;19814;48.224;11.422;2023-09-30T07:15:13;17.20;99.90
33476;DHT22;19814;48.224;11.422;2023-09-30T07:17:42;17.30;99.90
33476;DHT22;19814;48.224;11.422;2023-09-30T07:20:09;17.30;99.90
33476;DHT22;19814;48.224;11.422;2023-09-30T07:22:35;17.40;99.90
33476;DHT22;19814;48.224;11.422;2023-09-30T07:25:01;17.40;99.90
33476;DHT22;19814;48.224;11.422;2023-09-30T07:27:26;17.40;99.90
33476;DHT22;19814;48.224;11.422;2023-09-30T07:29:52;17.30;99.90
33476;DHT22;19814;48.224;11.422;2023-09-30T07:32:18;17.30;99.90
33476;DHT22;19814;48.224;11.422;2023-09-30T07:34:43;17.20;99.90
33476;DHT22;19814;48.224;11.422;2023-09-30T07:37:09;17.10;99.90
33476;DHT22;19814;48.224;11.422;2023-09-30T07:39:37;17.20;99.90
33476;DHT22;19814;48.224;11.422;2023-09-30T07:42:02;17.20;99.90
33476;DHT22;19814;48.224;11.422;2023-09-30T07:44:28;17.30;99.90
33476;DHT22;19814;48.224;11.422;2023-09-30T07:46:54;17.60;99.90
33476;DHT22;19814;48.224;11.422;2023-09-30T07:49:19;17.70;99.90
33476;DHT22;19814;48.224;11.422;2023-09-30T07:51:45;17.80;99.90
33476;DHT22;19814;48.224;11.422;2023-09-30T07:54:14;18.00;99.90
33476;DHT22;19814;48.224;11.422;2023-09-30T07:56:39;18.20;99.90
33476;DHT22;19814;48.224;11.422;2023-09-30T07:59:05;18.20;99.90
33476;DHT22;19814;48.224;11.422;2023-09-30T08:01:31;18.20;99.90
33476;DHT22;19814;48.224;11.422;2023-09-30T08:03:57;18.20;99.90
33476;DHT22;19814;48.224;11.422;2023-09-30T08:06:22;18.00;99.90
33476;DHT22;19814;48.224;11.422;2023-09-30T08:08:48;18.00;99.90
33476;DHT22;19814;48.224;11.422;2023-09-30T08:11:14;17.90;99.90
33476;DHT22;19814;48.224;11.422;2023-09-30T08:13:40;17.80;99.90
33476;DHT22;19814;48.224;11.422;2023-09-30T08:16:06;17.90;99.90
33476;DHT22;19814;48.224;11.422;2023-09-30T08:18:32;17.80;99.90
33476;DHT22;19814;48.224;11.422;2023-09-30T08:20:58;17.80;99.90
33476;DHT22;19814;48.224;11.422;2023-09-30T08:23:23;17.90;99.90
33476;DHT22;19814;48.224;11.422;2023-09-30T08:25:49;18.20;99.90
33476;DHT22;19814;48.224;11.422;2023-09-30T08:28:14;18.60;99.60
33476;DHT22;19814;48.224;11.422;2023-09-30T08:30:40;19.00;98.90
33476;DHT22;19814;48.224;11.422;2023-09-30T08:33:05;19.20;98.40
33476;DHT22;19814;48.224;11.422;2023-09-30T08:35:36;19.40;98.50
33476;DHT22;19814;48.224;11.422;2023-09-30T08:38:02;19.60;97.60
33476;DHT22;19814;48.224;11.422;2023-09-30T08:40:29;19.70;97.30
33476;DHT22;19814;48.224;11.422;2023-09-30T08:42:54;19.70;97.10
33476;DHT22;19814;48.224;11.422;2023-09-30T08:45:20;19.10;97.50
33476;DHT22;19814;48.224;11.422;2023-09-30T08:47:46;18.80;97.90
33476;DHT22;19814;48.224;11.422;2023-09-30T08:50:12;18.50;98.40
33476;DHT22;19814;48.224;11.422;2023-09-30T08:52:40;18.50;98.40
33476;DHT22;19814;48.224;11.422;2023-09-30T08:55:07;18.60;99.20
33476;DHT22;19814;48.224;11.422;2023-09-30T08:57:40;19.30;98.10
33476;DHT22;19814;48.224;11.422;2023-09-30T09:00:07;19.80;96.70
33476;DHT22;19814;48.224;11.422;2023-09-30T09:02:36;20.30;95.70
33476;DHT22;19814;48.224;11.422;2023-09-30T09:05:02;20.60;95.00
33476;DHT22;19814;48.224;11.422;2023-09-30T09:07:28;21.00;95.20
33476;DHT22;19814;48.224;11.422;2023-09-30T09:10:10;21.30;93.80
33476;DHT22;19814;48.224;11.422;2023-09-30T09:12:39;21.70;93.40
33476;DHT22;19814;48.224;11.422;2023-09-30T09:15:19;21.40;93.40
33476;DHT22;19814;48.224;11.422;2023-09-30T09:17:45;21.40;93.30
33476;DHT22;19814;48.224;11.422;2023-09-30T09:20:11;21.40;94.40
33476;DHT22;19814;48.224;11.422;2023-09-30T09:22:43;21.40;94.40
33476;DHT22;19814;48.224;11.422;2023-09-30T09:25:10;21.30;93.80
33476;DHT22;19814;48.224;11.422;2023-09-30T09:27:36;21.00;93.30
33476;DHT22;19814;48.224;11.422;2023-09-30T09:30:16;20.40;94.10
33476;DHT22;19814;48.224;11.422;2023-09-30T09:33:02;19.90;95.60
33476;DHT22;19814;48.224;11.422;2023-09-30T09:35:29;19.90;95.80
33476;DHT22;19814;48.224;11.422;2023-09-30T09:38:06;19.80;95.50
33476;DHT22;19814;48.224;11.422;2023-09-30T09:40:37;19.80;95.40
33476;DHT22;19814;48.224;11.422;2023-09-30T09:43:06;19.70;95.90
33476;DHT22;19814;48.224;11.422;2023-09-30T09:45:36;19.80;95.00
33476;DHT22;19814;48.224;11.422;2023-09-30T09:48:06;19.90;95.30
33476;DHT22;19814;48.224;11.422;2023-09-30T09:50:32;20.50;95.10
33476;DHT22;19814;48.224;11.422;2023-09-30T09:52:58;21.40;93.80
33476;DHT22;19814;48.224;11.422;2023-09-30T09:55:26;22.60;92.60
33476;DHT22;19814;48.224;11.422;2023-09-30T09:57:53;23.00;91.20
33476;DHT22;19814;48.224;11.422;2023-09-30T10:00:22;23.60;89.80
33476;DHT22;19814;48.224;11.422;2023-09-30T10:02:49;23.90;89.00
33476;DHT22;19814;48.224;11.422;2023-09-30T10:05:17;24.10;89.40
33476;DHT22;19814;48.224;11.422;2023-09-30T10:07:56;24.40;90.00
33476;DHT22;19814;48.224;11.422;2023-09-30T10:10:24;25.00;87.20
33476;DHT22;19814;48.224;11.422;2023-09-30T10:12:50;24.50;84.00
33476;DHT22;19814;48.224;11.422;2023-09-30T10:20:27;24.40;84.60
33476;DHT22;19814;48.224;11.422;2023-09-30T10:23:20;24.80;82.30
33476;DHT22;19814;48.224;11.422;2023-09-30T10:25:47;25.20;82.90
33476;DHT22;19814;48.224;11.422;2023-09-30T10:28:47;25.10;80.90
33476;DHT22;19814;48.224;11.422;2023-09-30T10:31:22;25.10;79.20
33476;DHT22;19814;48.224;11.422;2023-09-30T10:36:40;25.20;81.80
33476;DHT22;19814;48.224;11.422;2023-09-30T10:39:13;25.80;79.90
33476;DHT22;19814;48.224;11.422;2023-09-30T10:46:58;27.90;75.80
33476;DHT22;19814;48.224;11.422;2023-09-30T10:51:58;28.30;69.20
33476;DHT22;19814;48.224;11.422;2023-09-30T10:54:28;27.50;69.50
33476;DHT22;19814;48.224;11.422;2023-09-30T10:56:55;27.10;69.80
33476;DHT22;19814;48.224;11.422;2023-09-30T10:59:24;26.40;71.70
33476;DHT22;19814;48.224;11.422;2023-09-30T11:01:51;25.80;72.10
33476;DHT22;19814;48.224;11.422;2023-09-30T11:04:19;25.80;71.30
33476;DHT22;19814;48.224;11.422;2023-09-30T11:06:46;26.30;73.10
33476;DHT22;19814;48.224;11.422;2023-09-30T11:09:20;27.40;70.00
33476;DHT22;19814;48.224;11.422;2023-09-30T11:11:51;28.00;69.40
33476;DHT22;19814;48.224;11.422;2023-09-30T11:16:50;29.30;70.50
33476;DHT22;19814;48.224;11.422;2023-09-30T11:19:16;30.50;68.60
33476;DHT22;19814;48.224;11.422;2023-09-30T11:21:43;31.20;63.70
33476;DHT22;19814;48.224;11.422;2023-09-30T11:24:09;31.10;59.90
33476;DHT22;19814;48.224;11.422;2023-09-30T11:26:35;30.90;62.80
33476;DHT22;19814;48.224;11.422;2023-09-30T11:29:12;30.90;58.80
33476;DHT22;19814;48.224;11.422;2023-09-30T11:31:39;30.40;58.90
33476;DHT22;19814;48.224;11.422;2023-09-30T11:34:06;30.60;60.80
33476;DHT22;19814;48.224;11.422;2023-09-30T11:36:34;30.90;59.70
33476;DHT22;19814;48.224;11.422;2023-09-30T11:39:00;31.20;60.70
33476;DHT22;19814;48.224;11.422;2023-09-30T11:41:41;31.30;58.60
33476;DHT22;19814;48.224;11.422;2023-09-30T11:44:10;30.90;57.60
33476;DHT22;19814;48.224;11.422;2023-09-30T11:46:57;30.80;57.10
33476;DHT22;19814;48.224;11.422;2023-09-30T11:49:28;31.60;58.70
33476;DHT22;19814;48.224;11.422;2023-09-30T11:51:55;31.90;57.50
33476;DHT22;19814;48.224;11.422;2023-09-30T11:54:21;32.30;59.10
33476;DHT22;19814;48.224;11.422;2023-09-30T11:56:48;32.40;58.20
33476;DHT22;19814;48.224;11.422;2023-09-30T11:59:16;33.00;58.50
33476;DHT22;19814;48.224;11.422;2023-09-30T12:01:41;33.80;56.70
33476;DHT22;19814;48.224;11.422;2023-09-30T12:04:08;34.60;54.00
33476;DHT22;19814;48.224;11.422;2023-09-30T12:06:34;34.50;53.40
33476;DHT22;19814;48.224;11.422;2023-09-30T12:09:01;34.20;53.30
33476;DHT22;19814;48.224;11.422;2023-09-30T12:11:28;34.10;52.20
33476;DHT22;19814;48.224;11.422;2023-09-30T12:13:54;33.70;53.20
33476;DHT22;19814;48.224;11.422;2023-09-30T12:16:20;34.60;52.40
33476;DHT22;19814;48.224;11.422;2023-09-30T12:18:46;34.00;50.50
33476;DHT22;19814;48.224;11.422;2023-09-30T12:21:12;32.60;52.10
33476;DHT22;19814;48.224;11.422;2023-09-30T12:23:39;32.10;50.10
33476;DHT22;19814;48.224;11.422;2023-09-30T12:26:05;31.60;51.00
33476;DHT22;19814;48.224;11.422;2023-09-30T12:28:34;30.70;50.90
33476;DHT22;19814;48.224;11.422;2023-09-30T12:31:00;29.90;53.40
33476;DHT22;19814;48.224;11.422;2023-09-30T12:33:29;28.90;52.40
33476;DHT22;19814;48.224;11.422;2023-09-30T12:35:55;27.90;55.90
33476;DHT22;19814;48.224;11.422;2023-09-30T12:38:22;27.50;56.40
33476;DHT22;19814;48.224;11.422;2023-09-30T12:40:47;26.40;56.50
33476;DHT22;19814;48.224;11.422;2023-09-30T12:43:14;25.90;60.00
33476;DHT22;19814;48.224;11.422;2023-09-30T12:45:39;25.40;62.20
33476;DHT22;19814;48.224;11.422;2023-09-30T12:48:05;24.90;63.80
33476;DHT22;19814;48.224;11.422;2023-09-30T12:50:30;24.60;63.70
33476;DHT22;19814;48.224;11.422;2023-09-30T12:52:56;24.50;65.80
33476;DHT22;19814;48.224;11.422;2023-09-30T12:55:22;24.60;65.90
33476;DHT22;19814;48.224;11.422;2023-09-30T12:57:47;24.60;64.30
33476;DHT22;19814;48.224;11.422;2023-09-30T13:00:13;24.50;66.80
33476;DHT22;19814;48.224;11.422;2023-09-30T13:02:41;24.70;67.60
33476;DHT22;19814;48.224;11.422;2023-09-30T13:05:06;25.00;66.30
33476;DHT22;19814;48.224;11.422;2023-09-30T13:07:32;25.00;66.80
33476;DHT22;19814;48.224;11.422;2023-09-30T13:09:58;24.50;67.30
33476;DHT22;19814;48.224;11.422;2023-09-30T13:12:30;23.80;66.40
33476;DHT22;19814;48.224;11.422;2023-09-30T13:14:55;23.40;67.80
33476;DHT22;19814;48.224;11.422;2023-09-30T13:17:22;23.10;70.50
33476;DHT22;19814;48.224;11.422;2023-09-30T13:19:47;23.20;67.90
33476;DHT22;19814;48.224;11.422;2023-09-30T13:22:13;23.10;68.50
33476;DHT22;19814;48.224;11.422;2023-09-30T13:24:38;22.90;69.60
33476;DHT22;19814;48.224;11.422;2023-09-30T13:27:05;22.80;69.10
33476;DHT22;19814;48.224;11.422;2023-09-30T13:29:31;22.60;69.10
33476;DHT22;19814;48.224;11.422;2023-09-30T13:31:56;22.50;70.90
33476;DHT22;19814;48.224;11.422;2023-09-30T13:34:22;22.40;70.40
33476;DHT22;19814;48.224;11.422;2023-09-30T13:36:48;22.50;69.90
33476;DHT22;19814;48.224;11.422;2023-09-30T13:39:14;22.50;71.40
33476;DHT22;19814;48.224;11.422;2023-09-30T13:41:39;22.60;72.00
33476;DHT22;19814;48.224;11.422;2023-09-30T13:44:06;22.70;71.50
33476;DHT22;19814;48.224;11.422;2023-09-30T13:46:31;22.90;67.00
33476;DHT22;19814;48.224;11.422;2023-09-30T13:48:57;22.80;69.10
33476;DHT22;19814;48.224;11.422;2023-09-30T13:51:22;22.80;69.00
33476;DHT22;19814;48.224;11.422;2023-09-30T13:53:48;22.60;68.70
33476;DHT22;19814;48.224;11.422;2023-09-30T13:56:14;22.50;69.20
33476;DHT22;19814;48.224;11.422;2023-09-30T13:58:39;22.40;70.60
33476;DHT22;19814;48.224;11.422;2023-09-30T14:01:05;22.40;70.10
33476;DHT22;19814;48.224;11.422;2023-09-30T14:03:32;22.40;69.80
33476;DHT22;19814;48.224;11.422;2023-09-30T14:05:59;22.30;69.90
33476;DHT22;19814;48.224;11.422;2023-09-30T14:08:25;22.30;70.50
33476;DHT22;19814;48.224;11.422;2023-09-30T14:10:50;22.30;70.70
33476;DHT22;19814;48.224;11.422;2023-09-30T14:13:19;22.30;71.10
33476;DHT22;19814;48.224;11.422;2023-09-30T14:15:45;22.30;72.90
33476;DHT22;19814;48.224;11.422;2023-09-30T14:18:12;22.30;72.20
33476;DHT22;19814;48.224;11.422;2023-09-30T14:20:37;22.30;73.60
33476;DHT22;19814;48.224;11.422;2023-09-30T14:23:03;22.30;72.40
33476;DHT22;19814;48.224;11.422;2023-09-30T14:25:28;22.20;71.70
33476;DHT22;19814;48.224;11.422;2023-09-30T14:27:54;22.10;72.20
33476;DHT22;19814;48.224;11.422;2023-09-30T14:30:20;22.00;73.90
33476;DHT22;19814;48.224;11.422;2023-09-30T14:32:53;21.80;76.10
33476;DHT22;19814;48.224;11.422;2023-09-30T14:35:19;21.60;75.00
33476;DHT22;19814;48.224;11.422;2023-09-30T14:37:45;21.50;76.00
33476;DHT22;19814;48.224;11.422;2023-09-30T14:40:11;21.50;74.50
33476;DHT22;19814;48.224;11.422;2023-09-30T14:42:37;21.60;73.10
33476;DHT22;19814;48.224;11.422;2023-09-30T14:45:03;21.50;75.00
33476;DHT22;19814;48.224;11.422;2023-09-30T14:47:29;21.40;76.00
33476;DHT22;19814;48.224;11.422;2023-09-30T14:49:54;21.40;75.30
33476;DHT22;19814;48.224;11.422;2023-09-30T14:52:20;21.40;75.40
33476;DHT22;19814;48.224;11.422;2023-09-30T14:54:45;21.30;75.30
33476;DHT22;19814;48.224;11.422;2023-09-30T14:57:11;21.30;76.80
33476;DHT22;19814;48.224;11.422;2023-09-30T14:59:39;21.30;77.50
33476;DHT22;19814;48.224;11.422;2023-09-30T15:02:06;21.20;77.10
33476;DHT22;19814;48.224;11.422;2023-09-30T15:04:34;21.20;77.60
33476;DHT22;19814;48.224;11.422;2023-09-30T15:07:00;21.20;79.00
33476;DHT22;19814;48.224;11.422;2023-09-30T15:09:26;21.20;80.00
33476;DHT22;19814;48.224;11.422;2023-09-30T15:11:52;21.20;80.30
33476;DHT22;19814;48.224;11.422;2023-09-30T15:14:18;21.20;80.70
33476;DHT22;19814;48.224;11.422;2023-09-30T15:16:44;21.10;81.00
33476;DHT22;19814;48.224;11.422;2023-09-30T15:19:09;21.10;81.10
33476;DHT22;19814;48.224;11.422;2023-09-30T15:21:35;21.00;81.70
33476;DHT22;19814;48.224;11.422;2023-09-30T15:24:01;20.90;81.70
33476;DHT22;19814;48.224;11.422;2023-09-30T15:26:28;20.90;82.40
33476;DHT22;19814;48.224;11.422;2023-09-30T15:28:54;20.90;82.10
33476;DHT22;19814;48.224;11.422;2023-09-30T15:31:19;20.90;82.00